Wetterdaten: Woche 30.08.04 - 05.09.04 (KW36)
Datum Zeit Temperatur Luftfeuchte Luftdruck Regenmenge Wind Richtung Taupunkt Windchill
30.08.2004 00:00 14.7 C 100 % 1018.1 hPa 0.0 l/m 0.0 km/h (0 Bft) N 14.7 C 14.7 C
30.08.2004 01:00 15.0 C 100 % 1018.0 hPa 0.0 l/m 0.8 km/h (0 Bft) SO 15.0 C 15.0 C
30.08.2004 02:00 14.7 C 100 % 1017.6 hPa 0.0 l/m 1.9 km/h (1 Bft) SO 14.7 C 14.7 C
30.08.2004 03:00 14.5 C 100 % 1017.0 hPa 0.0 l/m 2.1 km/h (1 Bft) SO 14.5 C 14.5 C
30.08.2004 04:00 14.1 C 100 % 1016.4 hPa 0.0 l/m 1.1 km/h (0 Bft) SO 14.1 C 14.1 C
30.08.2004 05:00 14.4 C 100 % 1016.0 hPa 0.0 l/m 0.0 km/h (0 Bft) N 14.4 C 14.4 C
30.08.2004 06:00 14.2 C 100 % 1016.0 hPa 0.0 l/m 0.5 km/h (0 Bft) SO 14.2 C 14.2 C
30.08.2004 07:00 14.7 C 100 % 1016.1 hPa 0.3 l/m 0.7 km/h (0 Bft) W 14.7 C 14.7 C
30.08.2004 08:00 15.8 C 100 % 1016.1 hPa 0.0 l/m 2.0 km/h (1 Bft) N-NO 15.8 C 15.8 C
30.08.2004 09:00 16.8 C 95 % 1015.8 hPa 0.0 l/m 3.1 km/h (1 Bft) O-SO 15.9 C 16.8 C
30.08.2004 10:00 17.9 C 86 % 1016.0 hPa 0.0 l/m 3.5 km/h (1 Bft) SO 15.5 C 17.9 C
30.08.2004 11:00 19.0 C 79 % 1015.4 hPa 0.0 l/m 3.8 km/h (1 Bft) W-SW 15.3 C 19.0 C
30.08.2004 12:00 17.7 C 72 % 1016.2 hPa 0.0 l/m 28.8 km/h (4 Bft) W-NW 12.5 C 17.7 C
30.08.2004 13:00 17.9 C 70 % 1015.6 hPa 0.0 l/m 25.8 km/h (4 Bft) W-NW 12.2 C 17.9 C
30.08.2004 14:00 19.4 C 64 % 1015.4 hPa 0.0 l/m 18.7 km/h (3 Bft) W-NW 12.4 C 19.4 C
30.08.2004 15:00 19.4 C 67 % 1014.7 hPa 0.3 l/m 27.4 km/h (4 Bft) W-NW 13.0 C 19.4 C
30.08.2004 16:00 16.8 C 80 % 1015.9 hPa 0.0 l/m 32.4 km/h (5 Bft) W-NW 13.3 C 16.8 C
30.08.2004 17:00 16.3 C 79 % 1016.4 hPa 0.0 l/m 37.8 km/h (5 Bft) W-NW 12.6 C 16.3 C
30.08.2004 18:00 15.8 C 75 % 1016.9 hPa 0.0 l/m 26.5 km/h (4 Bft) W-NW 11.3 C 15.8 C
30.08.2004 19:00 15.6 C 76 % 1016.9 hPa 0.0 l/m 8.5 km/h (2 Bft) W 11.4 C 15.6 C
30.08.2004 20:00 15.0 C 84 % 1017.5 hPa 0.0 l/m 13.8 km/h (3 Bft) W-NW 12.4 C 15.0 C
30.08.2004 21:00 15.0 C 86 % 1018.0 hPa 0.0 l/m 17.4 km/h (3 Bft) W-NW 12.6 C 15.0 C
30.08.2004 22:00 15.2 C 85 % 1018.0 hPa 0.0 l/m 15.3 km/h (3 Bft) W-NW 12.6 C 15.2 C
30.08.2004 23:00 15.2 C 82 % 1018.1 hPa 0.0 l/m 10.5 km/h (2 Bft) W-NW 12.2 C 15.2 C
31.08.2004 00:00 15.0 C 80 % 1018.9 hPa 0.0 l/m 5.2 km/h (1 Bft) W 11.6 C 15.0 C
31.08.2004 01:00 14.7 C 82 % 1019.1 hPa 0.0 l/m 3.8 km/h (1 Bft) W-NW 11.6 C 14.7 C
31.08.2004 02:00 14.3 C 84 % 1019.1 hPa 0.0 l/m 0.6 km/h (0 Bft) W 11.6 C 14.3 C
31.08.2004 03:00 13.6 C 88 % 1019.2 hPa 0.0 l/m 0.3 km/h (0 Bft) SW 11.8 C 13.6 C
31.08.2004 04:00 13.2 C 92 % 1018.6 hPa 0.0 l/m 1.2 km/h (1 Bft) SW 11.9 C 13.2 C
31.08.2004 05:00 12.4 C 95 % 1018.4 hPa 0.0 l/m 3.0 km/h (1 Bft) S 11.6 C 12.4 C
31.08.2004 06:00 11.7 C 98 % 1018.6 hPa 0.0 l/m 2.3 km/h (1 Bft) S-SO 11.4 C 11.7 C
31.08.2004 07:00 12.2 C 99 % 1019.4 hPa 0.0 l/m 0.6 km/h (0 Bft) S-SO 11.9 C 12.2 C
31.08.2004 08:00 13.7 C 90 % 1019.2 hPa 0.0 l/m 0.0 km/h (0 Bft) N 12.1 C 13.7 C
31.08.2004 09:00 14.6 C 78 % 1019.1 hPa 0.0 l/m 0.4 km/h (0 Bft) S-SO 10.7 C 14.6 C
31.08.2004 10:00 15.8 C 69 % 1018.9 hPa 0.0 l/m 4.5 km/h (1 Bft) W 10.0 C 15.8 C
31.08.2004 11:00 17.1 C 61 % 1018.8 hPa 0.0 l/m 6.8 km/h (2 Bft) W 9.4 C 17.1 C
31.08.2004 12:00 18.3 C 56 % 1018.6 hPa 0.0 l/m 5.6 km/h (1 Bft) W 9.2 C 18.3 C
31.08.2004 13:00 18.7 C 52 % 1018.6 hPa 0.0 l/m 6.3 km/h (2 Bft) W-NW 8.7 C 18.7 C
31.08.2004 14:00 20.3 C 45 % 1017.5 hPa 0.0 l/m 8.4 km/h (2 Bft) W-NW 7.8 C 20.3 C
31.08.2004 15:00 21.1 C 41 % 1017.2 hPa 0.0 l/m 9.5 km/h (2 Bft) W 7.1 C 21.1 C
31.08.2004 16:00 21.4 C 44 % 1017.2 hPa 0.0 l/m 11.7 km/h (2 Bft) W-NW 8.6 C 21.4 C
31.08.2004 17:00 20.8 C 48 % 1017.2 hPa 0.0 l/m 10.5 km/h (2 Bft) W-NW 9.3 C 20.8 C
31.08.2004 18:00 20.3 C 49 % 1017.3 hPa 0.0 l/m 5.4 km/h (1 Bft) W-NW 9.3 C 20.3 C
31.08.2004 19:00 19.7 C 51 % 1017.4 hPa 0.0 l/m 3.4 km/h (1 Bft) W-NW 9.3 C 19.7 C
31.08.2004 20:00 17.0 C 63 % 1017.7 hPa 0.0 l/m 0.6 km/h (0 Bft) SW 10.0 C 17.0 C
31.08.2004 21:00 16.4 C 60 % 1018.8 hPa 0.0 l/m 0.2 km/h (0 Bft) N 8.7 C 16.4 C
31.08.2004 22:00 15.6 C 68 % 1019.0 hPa 0.0 l/m 0.0 km/h (0 Bft) N 9.7 C 15.6 C
31.08.2004 23:00 14.6 C 74 % 1019.1 hPa 0.0 l/m 0.0 km/h (0 Bft) N 10.0 C 14.6 C
01.09.2004 00:00 13.6 C 79 % 1019.2 hPa 0.0 l/m 0.7 km/h (0 Bft) NO 9.9 C 13.6 C
01.09.2004 01:00 12.3 C 86 % 1019.4 hPa 0.0 l/m 0.0 km/h (0 Bft) N 10.0 C 12.3 C
01.09.2004 02:00 11.4 C 92 % 1019.5 hPa 0.0 l/m 0.0 km/h (0 Bft) N 10.1 C 11.4 C
01.09.2004 03:00 9.9 C 95 % 1019.7 hPa 0.0 l/m 0.0 km/h (0 Bft) N 9.1 C 9.9 C
01.09.2004 04:00 8.8 C 98 % 1019.9 hPa 0.0 l/m 0.0 km/h (0 Bft) N 8.4 C 8.8 C
01.09.2004 05:00 8.1 C 99 % 1020.0 hPa 0.0 l/m 0.0 km/h (0 Bft) N 8.0 C 8.1 C
01.09.2004 06:00 7.7 C 100 % 1020.1 hPa 0.0 l/m 0.0 km/h (0 Bft) N 7.7 C 7.7 C
01.09.2004 07:00 8.5 C 100 % 1019.9 hPa 0.0 l/m 0.0 km/h (0 Bft) N 8.4 C 8.5 C
01.09.2004 08:00 10.4 C 94 % 1019.7 hPa 0.0 l/m 0.5 km/h (0 Bft) NW 9.4 C 10.4 C
01.09.2004 09:00 12.4 C 80 % 1019.4 hPa 0.0 l/m 0.1 km/h (0 Bft) N 9.0 C 12.4 C
01.09.2004 10:00 15.3 C 67 % 1019.0 hPa 0.0 l/m 2.2 km/h (1 Bft) O-SO 9.1 C 15.3 C
01.09.2004 11:00 17.9 C 59 % 1018.0 hPa 0.0 l/m 5.3 km/h (1 Bft) O-SO 9.7 C 17.9 C
01.09.2004 12:00 19.6 C 53 % 1017.4 hPa 0.0 l/m 6.0 km/h (2 Bft) O-SO 9.6 C 19.6 C
01.09.2004 13:00 21.3 C 48 % 1016.5 hPa 0.0 l/m 9.8 km/h (2 Bft) O-SO 9.7 C 21.3 C
01.09.2004 14:00 22.6 C 42 % 1016.0 hPa 0.0 l/m 8.8 km/h (2 Bft) O-SO 9.0 C 22.6 C
01.09.2004 15:00 23.7 C 39 % 1015.8 hPa 0.0 l/m 12.6 km/h (3 Bft) O-SO 9.0 C 23.7 C
01.09.2004 16:00 23.6 C 53 % 1015.2 hPa 0.0 l/m 11.5 km/h (2 Bft) O-SO 13.3 C 23.6 C
01.09.2004 17:00 22.5 C 55 % 1015.0 hPa 0.0 l/m 10.0 km/h (2 Bft) O-SO 13.0 C 22.5 C
01.09.2004 18:00 21.5 C 46 % 1015.1 hPa 0.0 l/m 9.1 km/h (2 Bft) O-SO 9.4 C 21.5 C
01.09.2004 19:00 19.8 C 52 % 1015.3 hPa 0.0 l/m 1.2 km/h (1 Bft) O-SO 9.6 C 19.8 C
01.09.2004 20:00 16.4 C 67 % 1016.6 hPa 0.0 l/m 2.0 km/h (1 Bft) O-SO 10.2 C 16.4 C
01.09.2004 21:00 13.8 C 79 % 1017.1 hPa 0.0 l/m 1.0 km/h (0 Bft) O-SO 10.2 C 13.8 C
01.09.2004 22:00 12.3 C 88 % 1017.3 hPa 0.0 l/m 0.3 km/h (0 Bft) O-SO 10.4 C 12.3 C
01.09.2004 23:00 11.6 C 93 % 1017.6 hPa 0.0 l/m 0.0 km/h (0 Bft) N 10.6 C 11.6 C
02.09.2004 00:00 11.0 C 95 % 1018.5 hPa 0.0 l/m 0.1 km/h (0 Bft) N 10.3 C 11.0 C
02.09.2004 01:00 10.4 C 97 % 1018.6 hPa 0.0 l/m 0.7 km/h (0 Bft) O-SO 10.0 C 10.4 C
02.09.2004 02:00 9.9 C 99 % 1018.7 hPa 0.0 l/m 0.4 km/h (0 Bft) O-SO 9.7 C 9.9 C
02.09.2004 03:00 9.4 C 100 % 1018.8 hPa 0.0 l/m 0.1 km/h (0 Bft) O-SO 9.4 C 9.4 C
02.09.2004 04:00 9.0 C 100 % 1019.2 hPa 0.0 l/m 0.0 km/h (0 Bft) N 9.0 C 9.0 C
02.09.2004 05:00 8.5 C 100 % 1019.9 hPa 0.0 l/m 0.0 km/h (0 Bft) N 8.5 C 8.5 C
02.09.2004 06:00 8.0 C 100 % 1019.5 hPa 0.0 l/m 0.0 km/h (0 Bft) N 8.0 C 8.0 C
02.09.2004 07:00 8.6 C 100 % 1019.9 hPa 0.0 l/m 0.0 km/h (0 Bft) N 8.6 C 8.6 C
02.09.2004 08:00 10.8 C 99 % 1019.9 hPa 0.0 l/m 0.0 km/h (0 Bft) N 10.6 C 10.8 C
02.09.2004 09:00 13.1 C 87 % 1020.3 hPa 0.0 l/m 0.2 km/h (0 Bft) N 11.0 C 13.1 C
02.09.2004 10:00 15.5 C 71 % 1019.6 hPa 0.0 l/m 1.5 km/h (1 Bft) W-NW 10.3 C 15.5 C
02.09.2004 11:00 18.2 C 63 % 1018.6 hPa 0.0 l/m 2.4 km/h (1 Bft) W-NW 11.0 C 18.2 C
02.09.2004 12:00 20.6 C 58 % 1018.3 hPa 0.0 l/m 2.2 km/h (1 Bft) W-NW 11.9 C 20.6 C
02.09.2004 13:00 23.2 C 52 % 1017.0 hPa 0.0 l/m 2.6 km/h (1 Bft) O-SO 12.7 C 23.2 C
02.09.2004 14:00 25.2 C 44 % 1016.7 hPa 0.0 l/m 2.3 km/h (1 Bft) W-NW 12.1 C 25.2 C
02.09.2004 15:00 26.2 C 42 % 1016.6 hPa 0.0 l/m 3.3 km/h (1 Bft) W-NW 12.4 C 26.2 C
02.09.2004 16:00 26.4 C 42 % 1016.5 hPa 0.0 l/m 4.6 km/h (1 Bft) W-NW 12.3 C 26.4 C
02.09.2004 17:00 26.3 C 39 % 1016.6 hPa 0.0 l/m 0.1 km/h (0 Bft) N 11.3 C 26.3 C
02.09.2004 18:00 25.4 C 42 % 1016.7 hPa 0.0 l/m 0.9 km/h (0 Bft) O-SO 11.5 C 25.4 C
02.09.2004 19:00 23.0 C 56 % 1017.0 hPa 0.0 l/m 0.4 km/h (0 Bft) O-SO 13.5 C 23.0 C
02.09.2004 20:00 19.3 C 70 % 1017.9 hPa 0.0 l/m 6.4 km/h (2 Bft) O-SO 13.7 C 19.3 C
02.09.2004 21:00 17.3 C 80 % 1018.7 hPa 0.0 l/m 1.5 km/h (1 Bft) O-SO 13.8 C 17.3 C
02.09.2004 22:00 16.0 C 86 % 1019.6 hPa 0.0 l/m 1.0 km/h (0 Bft) O-SO 13.7 C 16.0 C
02.09.2004 23:00 15.1 C 90 % 1020.3 hPa 0.0 l/m 1.0 km/h (0 Bft) O-SO 13.5 C 15.1 C
03.09.2004 00:00 14.6 C 93 % 1020.7 hPa 0.0 l/m 1.2 km/h (1 Bft) O-SO 13.4 C 14.6 C
03.09.2004 01:00 14.0 C 96 % 1021.3 hPa 0.0 l/m 1.9 km/h (1 Bft) O-SO 13.3 C 14.0 C
03.09.2004 02:00 13.3 C 97 % 1021.4 hPa 0.0 l/m 0.7 km/h (0 Bft) O-SO 12.9 C 13.3 C
03.09.2004 03:00 12.9 C 99 % 1022.1 hPa 0.0 l/m 2.3 km/h (1 Bft) O-SO 12.8 C 12.9 C
03.09.2004 04:00 12.5 C 100 % 1022.5 hPa 0.0 l/m 0.9 km/h (0 Bft) O-SO 12.5 C 12.5 C
03.09.2004 05:00 12.3 C 100 % 1022.5 hPa 0.0 l/m 0.2 km/h (0 Bft) N 12.3 C 12.3 C
03.09.2004 06:00 12.0 C 100 % 1023.0 hPa 0.0 l/m 0.0 km/h (0 Bft) N 12.0 C 12.0 C
03.09.2004 07:00 12.6 C 100 % 1023.7 hPa 0.0 l/m 0.0 km/h (0 Bft) N 12.5 C 12.6 C
03.09.2004 08:00 14.4 C 98 % 1024.3 hPa 0.0 l/m 0.0 km/h (0 Bft) N 14.0 C 14.4 C
03.09.2004 09:00 16.3 C 89 % 1024.1 hPa 0.0 l/m 0.0 km/h (0 Bft) N 14.5 C 16.3 C
03.09.2004 10:00 19.2 C 79 % 1023.7 hPa 0.0 l/m 0.0 km/h (0 Bft) O-SO 15.4 C 19.2 C
03.09.2004 11:00 21.7 C 68 % 1023.4 hPa 0.0 l/m 0.4 km/h (0 Bft) O-SO 15.5 C 21.7 C
03.09.2004 12:00 24.1 C 60 % 1023.1 hPa 0.0 l/m 1.8 km/h (1 Bft) O-SO 15.8 C 24.1 C
03.09.2004 13:00 26.2 C 52 % 1022.8 hPa 0.0 l/m 0.2 km/h (0 Bft) W-NW 15.7 C 26.2 C
03.09.2004 14:00 27.8 C 45 % 1022.6 hPa 0.0 l/m 0.6 km/h (0 Bft) W-NW 14.8 C 27.8 C
03.09.2004 15:00 29.0 C 39 % 1022.3 hPa 0.0 l/m 1.3 km/h (1 Bft) W-NW 13.6 C 29.0 C
03.09.2004 16:00 28.9 C 40 % 1021.6 hPa 0.0 l/m 0.1 km/h (0 Bft) N 14.0 C 28.9 C
03.09.2004 17:00 28.2 C 44 % 1021.5 hPa 0.0 l/m 0.6 km/h (0 Bft) W-NW 14.9 C 28.2 C
03.09.2004 18:00 27.3 C 53 % 1022.3 hPa 0.0 l/m 0.2 km/h (0 Bft) W-NW 16.7 C 27.3 C
03.09.2004 19:00 24.4 C 65 % 1023.0 hPa 0.0 l/m 0.0 km/h (0 Bft) N 17.3 C 24.4 C
03.09.2004 20:00 22.3 C 76 % 1023.4 hPa 0.0 l/m 2.3 km/h (1 Bft) SO 17.8 C 22.3 C
03.09.2004 21:00 21.6 C 78 % 1024.4 hPa 0.0 l/m 0.1 km/h (0 Bft) O-SO 17.7 C 21.6 C
03.09.2004 22:00 20.6 C 83 % 1025.2 hPa 0.0 l/m 0.4 km/h (0 Bft) O-SO 17.6 C 20.6 C
03.09.2004 23:00 19.9 C 87 % 1025.7 hPa 0.0 l/m 2.5 km/h (1 Bft) O-SO 17.7 C 19.9 C
04.09.2004 00:00 18.8 C 91 % 1025.8 hPa 0.0 l/m 0.9 km/h (0 Bft) O-SO 17.3 C 18.8 C
04.09.2004 01:00 18.2 C 95 % 1026.1 hPa 0.0 l/m 0.9 km/h (0 Bft) O-SO 17.4 C 18.2 C
04.09.2004 02:00 17.4 C 96 % 1026.6 hPa 0.0 l/m 0.0 km/h (0 Bft) N 16.7 C 17.4 C
04.09.2004 03:00 17.0 C 98 % 1027.1 hPa 0.0 l/m 1.1 km/h (0 Bft) O-SO 16.6 C 17.0 C
04.09.2004 04:00 16.2 C 99 % 1027.2 hPa 0.0 l/m 0.0 km/h (0 Bft) N 16.0 C 16.2 C
04.09.2004 05:00 15.7 C 100 % 1027.3 hPa 0.0 l/m 0.2 km/h (0 Bft) O-SO 15.6 C 15.7 C
04.09.2004 06:00 15.5 C 100 % 1027.3 hPa 0.0 l/m 1.7 km/h (1 Bft) O-SO 15.5 C 15.5 C
04.09.2004 07:00 15.8 C 100 % 1028.2 hPa 0.0 l/m 0.0 km/h (0 Bft) N 15.8 C 15.8 C
04.09.2004 08:00 17.0 C 99 % 1028.1 hPa 0.0 l/m 0.0 km/h (0 Bft) N 16.7 C 17.0 C
04.09.2004 09:00 18.6 C 87 % 1027.9 hPa 0.0 l/m 0.4 km/h (0 Bft) O-SO 16.3 C 18.6 C
04.09.2004 10:00 20.6 C 75 % 1027.7 hPa 0.0 l/m 0.0 km/h (0 Bft) N 16.0 C 20.6 C
04.09.2004 11:00 22.9 C 65 % 1027.4 hPa 0.0 l/m 1.5 km/h (1 Bft) W-NW 16.1 C 22.9 C
04.09.2004 12:00 25.2 C 60 % 1027.1 hPa 0.0 l/m 5.7 km/h (1 Bft) O-SO 16.9 C 25.2 C
04.09.2004 13:00 26.7 C 53 % 1026.9 hPa 0.0 l/m 12.2 km/h (2 Bft) O-SO 16.2 C 26.7 C
04.09.2004 14:00 28.0 C 48 % 1025.8 hPa 0.0 l/m 14.2 km/h (3 Bft) O-SO 16.0 C 28.0 C
04.09.2004 15:00 28.5 C 44 % 1025.6 hPa 0.0 l/m 5.0 km/h (1 Bft) NO 15.2 C 28.5 C
04.09.2004 16:00 28.3 C 45 % 1025.6 hPa 0.0 l/m 3.1 km/h (1 Bft) O-SO 15.1 C 28.3 C
04.09.2004 17:00 28.0 C 45 % 1025.2 hPa 0.0 l/m 2.0 km/h (1 Bft) O-SO 14.9 C 28.0 C
04.09.2004 18:00 27.2 C 46 % 1024.7 hPa 0.0 l/m 0.8 km/h (0 Bft) O-NO 14.6 C 27.2 C
04.09.2004 19:00 24.8 C 57 % 1025.0 hPa 0.0 l/m 1.1 km/h (1 Bft) O 15.5 C 24.8 C
04.09.2004 20:00 21.5 C 70 % 1025.9 hPa 0.0 l/m 2.3 km/h (1 Bft) O 15.7 C 21.5 C
04.09.2004 21:00 19.5 C 79 % 1026.8 hPa 0.0 l/m 0.0 km/h (0 Bft) N 15.8 C 19.5 C
04.09.2004 22:00 19.0 C 78 % 1026.8 hPa 0.0 l/m 0.4 km/h (0 Bft) O 15.0 C 19.0 C
04.09.2004 23:00 18.0 C 80 % 1027.0 hPa 0.0 l/m 0.0 km/h (0 Bft) N 14.5 C 18.0 C
05.09.2004 00:00 16.7 C 84 % 1027.1 hPa 0.0 l/m 0.0 km/h (0 Bft) N 14.1 C 16.7 C
05.09.2004 01:00 15.6 C 90 % 1027.3 hPa 0.0 l/m 0.0 km/h (0 Bft) N 13.9 C 15.6 C
05.09.2004 02:00 14.9 C 93 % 1027.0 hPa 0.0 l/m 0.1 km/h (0 Bft) N 13.7 C 14.9 C
05.09.2004 03:00 14.4 C 94 % 1026.4 hPa 0.0 l/m 0.0 km/h (0 Bft) N 13.5 C 14.4 C
05.09.2004 04:00 13.8 C 95 % 1026.5 hPa 0.0 l/m 0.0 km/h (0 Bft) N 13.1 C 13.8 C
05.09.2004 05:00 13.2 C 95 % 1026.6 hPa 0.0 l/m 0.0 km/h (0 Bft) N 12.4 C 13.2 C
05.09.2004 06:00 12.8 C 97 % 1026.6 hPa 0.0 l/m 0.0 km/h (0 Bft) N 12.4 C 12.8 C
05.09.2004 07:00 13.0 C 97 % 1026.6 hPa 0.0 l/m 0.2 km/h (0 Bft) O-NO 12.5 C 13.0 C
05.09.2004 08:00 15.2 C 90 % 1026.3 hPa 0.0 l/m 0.0 km/h (0 Bft) N 13.5 C 15.2 C
05.09.2004 09:00 17.8 C 78 % 1026.0 hPa 0.0 l/m 0.0 km/h (0 Bft) N 13.8 C 17.8 C
05.09.2004 10:00 21.0 C 63 % 1025.5 hPa 0.0 l/m 0.7 km/h (0 Bft) O-SO 13.8 C 21.0 C
05.09.2004 11:00 23.8 C 53 % 1024.6 hPa 0.0 l/m 3.3 km/h (1 Bft) O 13.7 C 23.8 C
05.09.2004 12:00 25.2 C 44 % 1024.0 hPa 0.0 l/m 3.4 km/h (1 Bft) O-NO 12.1 C 25.2 C
05.09.2004 13:00 26.7 C 38 % 1023.5 hPa 0.0 l/m 5.0 km/h (1 Bft) O 11.4 C 26.7 C
05.09.2004 14:00 27.9 C 36 % 1022.6 hPa 0.0 l/m 6.3 km/h (2 Bft) O-NO 11.2 C 27.9 C
05.09.2004 15:00 28.4 C 33 % 1022.1 hPa 0.0 l/m 8.0 km/h (2 Bft) O-SO 10.3 C 28.4 C
05.09.2004 16:00 28.2 C 33 % 1021.5 hPa 0.0 l/m 7.4 km/h (2 Bft) O-SO 10.5 C 28.2 C
05.09.2004 17:00 27.9 C 32 % 1021.5 hPa 0.0 l/m 2.2 km/h (1 Bft) O-SO 9.8 C 27.9 C
05.09.2004 18:00 26.8 C 35 % 1021.3 hPa 0.0 l/m 1.6 km/h (1 Bft) O-SO 9.8 C 26.8 C
05.09.2004 19:00 25.1 C 39 % 1021.1 hPa 0.0 l/m 0.0 km/h (0 Bft) N 10.1 C 25.1 C
05.09.2004 20:00 22.3 C 47 % 1022.3 hPa 0.0 l/m 0.0 km/h (0 Bft) N 10.2 C 22.3 C
05.09.2004 21:00 20.2 C 51 % 1022.5 hPa 0.0 l/m 0.0 km/h (0 Bft) N 9.8 C 20.2 C
05.09.2004 22:00 20.2 C 50 % 1022.6 hPa 0.0 l/m 0.0 km/h (0 Bft) N 9.5 C 20.2 C
05.09.2004 23:00 19.7 C 54 % 1022.6 hPa 0.0 l/m 0.1 km/h (0 Bft) N 10.1 C 19.7 C
Min-Datum _ 01.09.04 05.09.04 30.08.04 - 30.08.04 - 31.08.04 01.09.04
_ Min-Zeit 06:10 17:21 15:07 - 00:01 - 16:19 06:10
Minimum _ 7.6 C 30 % 1014.1 hPa - 0.0 km/h (0 Bft) - 5.5 C 7.6 C
Max-Datum _ 03.09.04 30.08.04 04.09.04 30.08.04 30.08.04 - 03.09.04 03.09.04
_ Max-Zeit 15:43 00:01 07:07 07:58 17:37 - 20:16 15:43
Maximum _ 29.6 C 100 % 1028.4 hPa 0.3 l/m 56.8 km/h
W-NW (7 Bft)
- 18.1 C 29.6 C
Durchschnitt _ 17.9 C 74 % 1020.8 hPa #0.6 l/m 3.5 km/h (1 Bft) O-SO 12.5 C 17.9 C

Durchschnitt Minimum Temp.17.0 C
Durchschnitt Maximum Temp.18.8 C
© Kaiko 2004